Varva — A8UP7 — position and weather

sailwx.info

Track history (hours):
 
Tides and Currents Weather Stations Pressure Air Temp Water Temp Dewpoint Dewpoint Depression Visibility Wind Speed Wind Dir Waves Ship Positions

Varva

Last reported at 2016-Feb-04 07:05 UTC. Time now 2016-Jul-01 20:52 UTC.
Position N 37°25' E 025°58'.
Warning: this ship's position is months out of date.

Length 224 m; draft 12.1 m.

Type: Cargo ship. MMSI: 636014536.

Date/timePositionNaut miles runAvg speedWind from/ knotsBaromVisibWave heightAir tempDewpointWater temp
2016-Feb-04 07:05N 37°25' E 025°58'5 9.3
2016-Feb-04 06:33N 37°29' E 025°55'9 9.3
2016-Feb-04 05:33N 37°38' E 025°52'231 7.2
2016-Feb-02 21:32N 40°53' E 028°34'1110.1
2016-Feb-02 20:30N 40°54' E 028°48'6 6.4
2016-Feb-02 19:31N 40°57' E 028°55'2 0.2
2016-Feb-02 05:25N 40°58' E 028°58'  
2016-Jan-30 16:32N 44°29' E 037°32'1010.0
2016-Jan-30 15:33N 44°32' E 037°45'8 8.3
2016-Jan-30 14:33N 44°33' E 037°56'0 0.2
2016-Jan-30 13:32N 44°33' E 037°57'0 0.0
2016-Jan-30 12:32N 44°33' E 037°57'0 0.0
2016-Jan-30 11:32N 44°33' E 037°57'0 0.0
2016-Jan-30 10:32N 44°33' E 037°57'0 0.0
2016-Jan-30 09:32N 44°33' E 037°57'0 0.0
2016-Jan-30 08:32N 44°33' E 037°57'0 0.0
2016-Jan-30 07:29N 44°33' E 037°57'0 0.0
2016-Jan-30 06:32N 44°33' E 037°57'0 0.0
2016-Jan-30 05:31N 44°33' E 037°57'0 0.0
2016-Jan-30 04:31N 44°33' E 037°57'0 0.0
2016-Jan-30 03:31N 44°33' E 037°57'0 0.0
2016-Jan-30 02:31N 44°33' E 037°57'0 0.0
2016-Jan-30 01:31N 44°33' E 037°57'0 0.0
2016-Jan-30 00:31N 44°33' E 037°57'0 0.0
2016-Jan-29 23:31N 44°33' E 037°57'0 0.0
2016-Jan-29 22:31N 44°33' E 037°57'0 0.0
2016-Jan-29 19:31N 44°33' E 037°56'0 0.0
2016-Jan-29 18:31N 44°33' E 037°56'0 0.0
2016-Jan-29 17:31N 44°33' E 037°56'0 0.0
2016-Jan-29 16:31N 44°33' E 037°57'0 0.0
2016-Jan-29 15:28N 44°33' E 037°57'0 0.0
2016-Jan-29 14:31N 44°33' E 037°56'0 0.0
2016-Jan-29 13:31N 44°33' E 037°57'0 0.0
2016-Jan-29 12:31N 44°33' E 037°56'0 0.0
2016-Jan-29 11:31N 44°33' E 037°56'0 0.0
2016-Jan-29 10:31N 44°33' E 037°56'0 0.0
2016-Jan-29 09:31N 44°33' E 037°57'0 0.0
2016-Jan-29 08:31N 44°33' E 037°57'0 0.0
2016-Jan-29 07:31N 44°33' E 037°57'0 0.0
2016-Jan-29 06:31N 44°33' E 037°56'0 0.0
2016-Jan-29 05:28N 44°33' E 037°56'0 0.0
2016-Jan-29 04:31N 44°33' E 037°56'0 0.0
2016-Jan-29 03:31N 44°33' E 037°56'0 0.0
2016-Jan-29 02:31N 44°33' E 037°56'0 0.0
2016-Jan-29 01:31N 44°33' E 037°56'0 0.0
2016-Jan-29 00:31N 44°33' E 037°56'0 0.0
2016-Jan-28 23:19N 44°33' E 037°56'0 0.0
2016-Jan-28 22:31N 44°33' E 037°56'0 0.0
2016-Jan-28 21:31N 44°33' E 037°56'0 0.0
2016-Jan-28 20:31N 44°33' E 037°56'0 0.0
2016-Jan-28 19:31N 44°33' E 037°56'0 0.0
2016-Jan-28 18:31N 44°33' E 037°56'0 0.0
2016-Jan-28 17:34N 44°33' E 037°56'0 0.1
2016-Jan-28 16:33N 44°33' E 037°57'0 0.0
2016-Jan-28 15:33N 44°33' E 037°57'0 0.0
2016-Jan-28 14:33N 44°33' E 037°57'0 0.0
2016-Jan-28 13:33N 44°33' E 037°57'0 0.0
2016-Jan-28 12:33N 44°33' E 037°57'0 0.0
2016-Jan-28 11:33N 44°33' E 037°57'0 0.0
2016-Jan-28 10:30N 44°33' E 037°57'0 0.0
2016-Jan-28 09:33N 44°33' E 037°57'0 0.0
2016-Jan-28 08:33N 44°33' E 037°57'0 0.0
2016-Jan-28 07:33N 44°33' E 037°57'0 0.0
2016-Jan-28 06:33N 44°33' E 037°57'0 0.0
2016-Jan-28 05:33N 44°33' E 037°57'0 0.0
2016-Jan-28 04:33N 44°33' E 037°57'0 0.0
2016-Jan-28 03:33N 44°33' E 037°57'0 0.0
2016-Jan-28 02:33N 44°33' E 037°57'0 0.0
2016-Jan-28 01:33N 44°33' E 037°57'0 0.0
2016-Jan-28 00:33N 44°33' E 037°57'0 0.0
2016-Jan-27 23:33N 44°33' E 037°57'0 0.0
2016-Jan-27 22:33N 44°33' E 037°57'0 0.0
2016-Jan-27 21:33N 44°33' E 037°57'0 0.0
2016-Jan-27 20:33N 44°33' E 037°57'0 0.0
2016-Jan-27 19:33N 44°33' E 037°57'0 0.0
2016-Jan-27 18:33N 44°33' E 037°57'0 0.0
2016-Jan-27 17:33N 44°33' E 037°57'0 0.1
2016-Jan-27 16:27N 44°33' E 037°57'1 0.9
2016-Jan-27 15:31N 44°34' E 037°56'0 0.1
2016-Jan-27 14:31N 44°34' E 037°56'0 0.0
2016-Jan-27 13:34N 44°34' E 037°56'0 0.0
2016-Jan-27 12:31N 44°34' E 037°56'0 0.0
2016-Jan-27 11:33N 44°34' E 037°56'0 0.0
2016-Jan-27 10:32N 44°34' E 037°56'0 0.0
2016-Jan-27 09:32N 44°34' E 037°56'0 0.0
2016-Jan-27 08:29N 44°34' E 037°56'0 0.0
2016-Jan-27 07:32N 44°34' E 037°56'0 0.1
2016-Jan-27 06:32N 44°34' E 037°56'1 1.5
2016-Jan-27 05:33N 44°34' E 037°54'6 6.3
2016-Jan-27 04:33N 44°40' E 037°50'4 4.4
2016-Jan-27 03:33N 44°44' E 037°47'0 0.0
2016-Jan-27 02:33N 44°44' E 037°47'0 0.0
2016-Jan-27 01:33N 44°44' E 037°47'0 0.0
2016-Jan-27 00:33N 44°44' E 037°47'0 0.0
2016-Jan-26 23:33N 44°44' E 037°47'0 0.0
2016-Jan-26 22:33N 44°44' E 037°47'0 0.0
2016-Jan-26 21:33N 44°44' E 037°47'0 0.0
2016-Jan-26 20:33N 44°44' E 037°47'0 0.0
2016-Jan-26 19:33N 44°44' E 037°47'0 0.0
2016-Jan-26 18:33N 44°44' E 037°47'0 0.0
2016-Jan-26 17:33N 44°44' E 037°47'0 0.0
2016-Jan-26 16:32N 44°44' E 037°47'0 0.0
2016-Jan-26 15:32N 44°44' E 037°47'0 0.0
2016-Jan-26 14:32N 44°44' E 037°47'0 0.0
2016-Jan-26 13:32N 44°44' E 037°47'0 0.0
2016-Jan-26 12:32N 44°44' E 037°47'0 0.0
2016-Jan-26 11:32N 44°44' E 037°47'0 0.0
2016-Jan-26 10:32N 44°44' E 037°47'0 0.0
2016-Jan-26 09:32N 44°44' E 037°47'0 0.0
2016-Jan-26 08:32N 44°44' E 037°47'0 0.0
2016-Jan-26 07:32N 44°44' E 037°47'0 0.0
2016-Jan-26 06:32N 44°44' E 037°47'0 0.0
2016-Jan-26 05:32N 44°44' E 037°47'0 0.0
2016-Jan-26 04:32N 44°44' E 037°47'0 0.0
2016-Jan-26 03:32N 44°44' E 037°47'0 0.0
2016-Jan-26 02:32N 44°44' E 037°47'0 0.0
2016-Jan-26 01:32N 44°44' E 037°47'0 0.0
2016-Jan-26 00:32N 44°44' E 037°47'0 0.0
2016-Jan-25 23:32N 44°44' E 037°47'0 0.0
2016-Jan-25 22:32N 44°44' E 037°47'0 0.0
2016-Jan-25 21:32N 44°44' E 037°47'0 0.0
2016-Jan-25 20:32N 44°44' E 037°47'0 0.0
2016-Jan-25 19:32N 44°44' E 037°47'0 0.0
2016-Jan-25 18:32N 44°44' E 037°47'0 0.0
2016-Jan-25 17:32N 44°44' E 037°47'0 0.0
2016-Jan-25 16:32N 44°44' E 037°47'0 0.0
2016-Jan-25 15:32N 44°44' E 037°47'0 0.0
2016-Jan-25 14:32N 44°44' E 037°47'0 0.0
2016-Jan-25 13:32N 44°44' E 037°47'0 0.0
2016-Jan-25 12:32N 44°44' E 037°47'0 0.0
2016-Jan-25 11:32N 44°44' E 037°47'0 0.0
2016-Jan-25 10:32N 44°44' E 037°47'0 0.0
2016-Jan-25 09:32N 44°44' E 037°47'0 0.0
2016-Jan-25 08:32N 44°44' E 037°47'0 0.0
2016-Jan-25 07:32N 44°44' E 037°47'  
Track history (hours):
 
Tides and Currents Weather Stations Pressure Air Temp Water Temp Dewpoint Dewpoint Depression Visibility Wind Speed Wind Dir Waves Ship Positions

Varva

Last reported at 2016-Feb-04 07:05 UTC. Time now 2016-Jul-01 20:52 UTC.
Position N 37°25' E 025°58'.
Warning: this ship's position is months out of date.

Length 224 m; draft 12.1 m.

Type: Cargo ship. MMSI: 636014536.

Date/timePositionNaut miles runAvg speedWind from/ knotsBaromVisibWave heightAir tempDewpointWater temp
2016-Feb-04 07:05N 37°25' E 025°58'5 9.3
2016-Feb-04 06:33N 37°29' E 025°55'9 9.3
2016-Feb-04 05:33N 37°38' E 025°52'231 7.2
2016-Feb-02 21:32N 40°53' E 028°34'1110.1
2016-Feb-02 20:30N 40°54' E 028°48'6 6.4
2016-Feb-02 19:31N 40°57' E 028°55'2 0.2
2016-Feb-02 05:25N 40°58' E 028°58'  
2016-Jan-30 16:32N 44°29' E 037°32'1010.0
2016-Jan-30 15:33N 44°32' E 037°45'8 8.3
2016-Jan-30 14:33N 44°33' E 037°56'0 0.2
2016-Jan-30 13:32N 44°33' E 037°57'0 0.0
2016-Jan-30 12:32N 44°33' E 037°57'0 0.0
2016-Jan-30 11:32N 44°33' E 037°57'0 0.0
2016-Jan-30 10:32N 44°33' E 037°57'0 0.0
2016-Jan-30 09:32N 44°33' E 037°57'0 0.0
2016-Jan-30 08:32N 44°33' E 037°57'0 0.0
2016-Jan-30 07:29N 44°33' E 037°57'0 0.0
2016-Jan-30 06:32N 44°33' E 037°57'0 0.0
2016-Jan-30 05:31N 44°33' E 037°57'0 0.0
2016-Jan-30 04:31N 44°33' E 037°57'0 0.0
2016-Jan-30 03:31N 44°33' E 037°57'0 0.0
2016-Jan-30 02:31N 44°33' E 037°57'0 0.0
2016-Jan-30 01:31N 44°33' E 037°57'0 0.0
2016-Jan-30 00:31N 44°33' E 037°57'0 0.0
2016-Jan-29 23:31N 44°33' E 037°57'0 0.0
2016-Jan-29 22:31N 44°33' E 037°57'0 0.0
2016-Jan-29 19:31N 44°33' E 037°56'0 0.0
2016-Jan-29 18:31N 44°33' E 037°56'0 0.0
2016-Jan-29 17:31N 44°33' E 037°56'0 0.0
2016-Jan-29 16:31N 44°33' E 037°57'0 0.0
2016-Jan-29 15:28N 44°33' E 037°57'0 0.0
2016-Jan-29 14:31N 44°33' E 037°56'0 0.0
2016-Jan-29 13:31N 44°33' E 037°57'0 0.0
2016-Jan-29 12:31N 44°33' E 037°56'0 0.0
2016-Jan-29 11:31N 44°33' E 037°56'0 0.0
2016-Jan-29 10:31N 44°33' E 037°56'0 0.0
2016-Jan-29 09:31N 44°33' E 037°57'0 0.0
2016-Jan-29 08:31N 44°33' E 037°57'0 0.0
2016-Jan-29 07:31N 44°33' E 037°57'0 0.0
2016-Jan-29 06:31N 44°33' E 037°56'0 0.0
2016-Jan-29 05:28N 44°33' E 037°56'0 0.0
2016-Jan-29 04:31N 44°33' E 037°56'0 0.0
2016-Jan-29 03:31N 44°33' E 037°56'0 0.0
2016-Jan-29 02:31N 44°33' E 037°56'0 0.0
2016-Jan-29 01:31N 44°33' E 037°56'0 0.0
2016-Jan-29 00:31N 44°33' E 037°56'0 0.0
2016-Jan-28 23:19N 44°33' E 037°56'0 0.0
2016-Jan-28 22:31N 44°33' E 037°56'0 0.0
2016-Jan-28 21:31N 44°33' E 037°56'0 0.0
2016-Jan-28 20:31N 44°33' E 037°56'0 0.0
2016-Jan-28 19:31N 44°33' E 037°56'0 0.0
2016-Jan-28 18:31N 44°33' E 037°56'0 0.0
2016-Jan-28 17:34N 44°33' E 037°56'0 0.1
2016-Jan-28 16:33N 44°33' E 037°57'0 0.0
2016-Jan-28 15:33N 44°33' E 037°57'0 0.0
2016-Jan-28 14:33N 44°33' E 037°57'0 0.0
2016-Jan-28 13:33N 44°33' E 037°57'0 0.0
2016-Jan-28 12:33N 44°33' E 037°57'0 0.0
2016-Jan-28 11:33N 44°33' E 037°57'0 0.0
2016-Jan-28 10:30N 44°33' E 037°57'0 0.0
2016-Jan-28 09:33N 44°33' E 037°57'0 0.0
2016-Jan-28 08:33N 44°33' E 037°57'0 0.0
2016-Jan-28 07:33N 44°33' E 037°57'0 0.0
2016-Jan-28 06:33N 44°33' E 037°57'0 0.0
2016-Jan-28 05:33N 44°33' E 037°57'0 0.0
2016-Jan-28 04:33N 44°33' E 037°57'0 0.0
2016-Jan-28 03:33N 44°33' E 037°57'0 0.0
2016-Jan-28 02:33N 44°33' E 037°57'0 0.0
2016-Jan-28 01:33N 44°33' E 037°57'0 0.0
2016-Jan-28 00:33N 44°33' E 037°57'0 0.0
2016-Jan-27 23:33N 44°33' E 037°57'0 0.0
2016-Jan-27 22:33N 44°33' E 037°57'0 0.0
2016-Jan-27 21:33N 44°33' E 037°57'0 0.0
2016-Jan-27 20:33N 44°33' E 037°57'0 0.0
2016-Jan-27 19:33N 44°33' E 037°57'0 0.0
2016-Jan-27 18:33N 44°33' E 037°57'0 0.0
2016-Jan-27 17:33N 44°33' E 037°57'0 0.1
2016-Jan-27 16:27N 44°33' E 037°57'1 0.9
2016-Jan-27 15:31N 44°34' E 037°56'0 0.1
2016-Jan-27 14:31N 44°34' E 037°56'0 0.0
2016-Jan-27 13:34N 44°34' E 037°56'0 0.0
2016-Jan-27 12:31N 44°34' E 037°56'0 0.0
2016-Jan-27 11:33N 44°34' E 037°56'0 0.0
2016-Jan-27 10:32N 44°34' E 037°56'0 0.0
2016-Jan-27 09:32N 44°34' E 037°56'0 0.0
2016-Jan-27 08:29N 44°34' E 037°56'0 0.0
2016-Jan-27 07:32N 44°34' E 037°56'0 0.1
2016-Jan-27 06:32N 44°34' E 037°56'1 1.5
2016-Jan-27 05:33N 44°34' E 037°54'6 6.3
2016-Jan-27 04:33N 44°40' E 037°50'4 4.4
2016-Jan-27 03:33N 44°44' E 037°47'0 0.0
2016-Jan-27 02:33N 44°44' E 037°47'0 0.0
2016-Jan-27 01:33N 44°44' E 037°47'0 0.0
2016-Jan-27 00:33N 44°44' E 037°47'0 0.0
2016-Jan-26 23:33N 44°44' E 037°47'0 0.0
2016-Jan-26 22:33N 44°44' E 037°47'0 0.0
2016-Jan-26 21:33N 44°44' E 037°47'0 0.0
2016-Jan-26 20:33N 44°44' E 037°47'0 0.0
2016-Jan-26 19:33N 44°44' E 037°47'0 0.0
2016-Jan-26 18:33N 44°44' E 037°47'0 0.0
2016-Jan-26 17:33N 44°44' E 037°47'0 0.0
2016-Jan-26 16:32N 44°44' E 037°47'0 0.0
2016-Jan-26 15:32N 44°44' E 037°47'0 0.0
2016-Jan-26 14:32N 44°44' E 037°47'0 0.0
2016-Jan-26 13:32N 44°44' E 037°47'0 0.0
2016-Jan-26 12:32N 44°44' E 037°47'0 0.0
2016-Jan-26 11:32N 44°44' E 037°47'0 0.0
2016-Jan-26 10:32N 44°44' E 037°47'0 0.0
2016-Jan-26 09:32N 44°44' E 037°47'0 0.0
2016-Jan-26 08:32N 44°44' E 037°47'0 0.0
2016-Jan-26 07:32N 44°44' E 037°47'0 0.0
2016-Jan-26 06:32N 44°44' E 037°47'0 0.0
2016-Jan-26 05:32N 44°44' E 037°47'0 0.0
2016-Jan-26 04:32N 44°44' E 037°47'0 0.0
2016-Jan-26 03:32N 44°44' E 037°47'0 0.0
2016-Jan-26 02:32N 44°44' E 037°47'0 0.0
2016-Jan-26 01:32N 44°44' E 037°47'0 0.0
2016-Jan-26 00:32N 44°44' E 037°47'0 0.0
2016-Jan-25 23:32N 44°44' E 037°47'0 0.0
2016-Jan-25 22:32N 44°44' E 037°47'0 0.0
2016-Jan-25 21:32N 44°44' E 037°47'0 0.0
2016-Jan-25 20:32N 44°44' E 037°47'0 0.0
2016-Jan-25 19:32N 44°44' E 037°47'0 0.0
2016-Jan-25 18:32N 44°44' E 037°47'0 0.0
2016-Jan-25 17:32N 44°44' E 037°47'0 0.0
2016-Jan-25 16:32N 44°44' E 037°47'0 0.0
2016-Jan-25 15:32N 44°44' E 037°47'0 0.0
2016-Jan-25 14:32N 44°44' E 037°47'0 0.0
2016-Jan-25 13:32N 44°44' E 037°47'0 0.0
2016-Jan-25 12:32N 44°44' E 037°47'0 0.0
2016-Jan-25 11:32N 44°44' E 037°47'0 0.0
2016-Jan-25 10:32N 44°44' E 037°47'0 0.0
2016-Jan-25 09:32N 44°44' E 037°47'0 0.0
2016-Jan-25 08:32N 44°44' E 037°47'0 0.0
2016-Jan-25 07:32N 44°44' E 037°47'  

Dump ship's entire track history